Terminal Aerodrome Forecast
Issued by NWS

Home | Current Version | Previous Version | Graphics & Text | Print | Product List | Glossary On
Versions: 1 2 3 4 5 6 7 8 9 10 11 12 13 14 15 16 17
000
FTUS43 KABR 222323
TAFMBG
TAF
KMBG 222323Z 2300/2324 16015G24KT P6SM FEW250
     FM230200 15010KT P6SM SKC
     FM230500 19008KT P6SM FEW250 WS020/21035KT
     FM231200 23009KT P6SM FEW250
     FM231700 31013KT P6SM FEW250=

USA.gov is the U.S. government's official web portal to all federal, state and local government web resources and services.